Nf67 Femarnbaelt II — OU3102 — position and weather

sailwx.info

Track history (hours):
 
Tides and Currents Weather Stations Pressure Air Temp Water Temp Dewpoint Dewpoint Depression Visibility Wind Speed Wind Dir Waves Ship Positions

Nf67 Femarnbaelt II

Last reported at 2015-Jan-27 18:05 UTC. Time now 2015-Jan-28 04:22 UTC.
Position N 54°38' E 011°21'.

Length 15 m.

Type: Fishing. MMSI: 219012459.

Date/timePositionNaut miles runAvg speedWind from/ knotsBaromVisibWave heightAir tempDewpointWater temp
2015-Jan-27 18:05N 54°38' E 011°21'2 3.4
2015-Jan-27 17:33N 54°36' E 011°22'7 6.8
2015-Jan-27 16:33N 54°29' E 011°23'2 2.4
2015-Jan-27 15:33N 54°27' E 011°25'1 0.6
2015-Jan-27 14:33N 54°27' E 011°26'3 3.2
2015-Jan-27 13:33N 54°30' E 011°22'3 2.7
2015-Jan-27 12:33N 54°27' E 011°24'3 3.4
2015-Jan-27 11:33N 54°24' E 011°27'3 3.3
2015-Jan-27 10:33N 54°21' E 011°30'2 2.0
2015-Jan-27 09:33N 54°23' E 011°30'3 3.2
2015-Jan-27 08:33N 54°26' E 011°27'3 3.2
2015-Jan-27 07:33N 54°28' E 011°23'3 3.3
2015-Jan-27 06:33N 54°31' E 011°20'8 0.6
2015-Jan-26 18:06N 54°39' E 011°21'3 4.7
2015-Jan-26 17:33N 54°37' E 011°23'6 6.0
2015-Jan-26 16:33N 54°31' E 011°25'2 1.7
2015-Jan-26 15:33N 54°31' E 011°22'3 3.3
2015-Jan-26 14:33N 54°33' E 011°17'1 0.7
2015-Jan-26 13:32N 54°32' E 011°18'3 3.3
2015-Jan-26 12:33N 54°30' E 011°23'3 3.2
2015-Jan-26 11:33N 54°28' E 011°26'3 3.1
2015-Jan-26 10:33N 54°26' E 011°30'0 0.4
2015-Jan-26 09:33N 54°26' E 011°30'3 2.8
2015-Jan-26 08:33N 54°28' E 011°26'3 3.2
2015-Jan-26 07:33N 54°30' E 011°22'4 3.7
2015-Jan-26 06:33N 54°34' E 011°20'6 0.2
2015-Jan-25 01:06N 54°39' E 011°21'1 0.0
2015-Jan-23 20:15N 54°39' E 011°21'0 0.3
2015-Jan-23 19:10N 54°38' E 011°22'0 0.5
2015-Jan-23 18:28N 54°38' E 011°21'1 0.6
2015-Jan-23 17:31N 54°37' E 011°21'3 3.3
2015-Jan-23 16:33N 54°35' E 011°19'3 2.8
2015-Jan-23 15:33N 54°32' E 011°19'2 1.7
2015-Jan-23 14:33N 54°31' E 011°22'3 2.8
2015-Jan-23 13:33N 54°33' E 011°18'3 2.6
2015-Jan-23 12:33N 54°31' E 011°22'4 3.6
2015-Jan-23 11:33N 54°28' E 011°26'3 3.5
2015-Jan-23 10:33N 54°25' E 011°28'1 1.5
2015-Jan-23 09:33N 54°24' E 011°28'3 3.0
2015-Jan-23 08:33N 54°27' E 011°27'3 2.9
2015-Jan-23 07:33N 54°29' E 011°23'3 2.9
2015-Jan-23 06:33N 54°31' E 011°20'4 4.1
2015-Jan-23 05:33N 54°35' E 011°20'4 0.4
2015-Jan-22 19:05N 54°39' E 011°19'1 0.6
2015-Jan-22 17:29N 54°39' E 011°17'4 4.2
2015-Jan-22 16:33N 54°36' E 011°12'2 2.1
2015-Jan-22 15:33N 54°34' E 011°13'3 3.4
2015-Jan-22 14:33N 54°33' E 011°18'4 3.7
2015-Jan-22 13:33N 54°29' E 011°22'3 2.9
2015-Jan-22 12:33N 54°28' E 011°26'3 3.4
2015-Jan-22 11:33N 54°25' E 011°29'1 0.5
2015-Jan-22 10:33N 54°25' E 011°28'2 1.5
2015-Jan-22 09:32N 54°26' E 011°27'2 1.9
2015-Jan-22 08:33N 54°28' E 011°25'3 3.1
2015-Jan-22 07:33N 54°30' E 011°21'4 3.6
2015-Jan-22 06:33N 54°34' E 011°22'5 0.3
2015-Jan-21 13:22N 54°38' E 011°21'2 0.1
2015-Jan-20 11:23N 54°39' E 011°18'5 5.7
2015-Jan-20 10:29N 54°36' E 011°10'1 0.9
2015-Jan-20 09:28N 54°35' E 011°09'3 3.5
2015-Jan-20 08:33N 54°34' E 011°14'4 3.6
2015-Jan-20 07:33N 54°32' E 011°19'2 1.8
2015-Jan-20 06:33N 54°33' E 011°22'  
Track history (hours):
 
Tides and Currents Weather Stations Pressure Air Temp Water Temp Dewpoint Dewpoint Depression Visibility Wind Speed Wind Dir Waves Ship Positions

Nf67 Femarnbaelt II

Last reported at 2015-Jan-27 18:05 UTC. Time now 2015-Jan-28 04:22 UTC.
Position N 54°38' E 011°21'.

Length 15 m.

Type: Fishing. MMSI: 219012459.

Date/timePositionNaut miles runAvg speedWind from/ knotsBaromVisibWave heightAir tempDewpointWater temp
2015-Jan-27 18:05N 54°38' E 011°21'2 3.4
2015-Jan-27 17:33N 54°36' E 011°22'7 6.8
2015-Jan-27 16:33N 54°29' E 011°23'2 2.4
2015-Jan-27 15:33N 54°27' E 011°25'1 0.6
2015-Jan-27 14:33N 54°27' E 011°26'3 3.2
2015-Jan-27 13:33N 54°30' E 011°22'3 2.7
2015-Jan-27 12:33N 54°27' E 011°24'3 3.4
2015-Jan-27 11:33N 54°24' E 011°27'3 3.3
2015-Jan-27 10:33N 54°21' E 011°30'2 2.0
2015-Jan-27 09:33N 54°23' E 011°30'3 3.2
2015-Jan-27 08:33N 54°26' E 011°27'3 3.2
2015-Jan-27 07:33N 54°28' E 011°23'3 3.3
2015-Jan-27 06:33N 54°31' E 011°20'8 0.6
2015-Jan-26 18:06N 54°39' E 011°21'3 4.7
2015-Jan-26 17:33N 54°37' E 011°23'6 6.0
2015-Jan-26 16:33N 54°31' E 011°25'2 1.7
2015-Jan-26 15:33N 54°31' E 011°22'3 3.3
2015-Jan-26 14:33N 54°33' E 011°17'1 0.7
2015-Jan-26 13:32N 54°32' E 011°18'3 3.3
2015-Jan-26 12:33N 54°30' E 011°23'3 3.2
2015-Jan-26 11:33N 54°28' E 011°26'3 3.1
2015-Jan-26 10:33N 54°26' E 011°30'0 0.4
2015-Jan-26 09:33N 54°26' E 011°30'3 2.8
2015-Jan-26 08:33N 54°28' E 011°26'3 3.2
2015-Jan-26 07:33N 54°30' E 011°22'4 3.7
2015-Jan-26 06:33N 54°34' E 011°20'6 0.2
2015-Jan-25 01:06N 54°39' E 011°21'1 0.0
2015-Jan-23 20:15N 54°39' E 011°21'0 0.3
2015-Jan-23 19:10N 54°38' E 011°22'0 0.5
2015-Jan-23 18:28N 54°38' E 011°21'1 0.6
2015-Jan-23 17:31N 54°37' E 011°21'3 3.3
2015-Jan-23 16:33N 54°35' E 011°19'3 2.8
2015-Jan-23 15:33N 54°32' E 011°19'2 1.7
2015-Jan-23 14:33N 54°31' E 011°22'3 2.8
2015-Jan-23 13:33N 54°33' E 011°18'3 2.6
2015-Jan-23 12:33N 54°31' E 011°22'4 3.6
2015-Jan-23 11:33N 54°28' E 011°26'3 3.5
2015-Jan-23 10:33N 54°25' E 011°28'1 1.5
2015-Jan-23 09:33N 54°24' E 011°28'3 3.0
2015-Jan-23 08:33N 54°27' E 011°27'3 2.9
2015-Jan-23 07:33N 54°29' E 011°23'3 2.9
2015-Jan-23 06:33N 54°31' E 011°20'4 4.1
2015-Jan-23 05:33N 54°35' E 011°20'4 0.4
2015-Jan-22 19:05N 54°39' E 011°19'1 0.6
2015-Jan-22 17:29N 54°39' E 011°17'4 4.2
2015-Jan-22 16:33N 54°36' E 011°12'2 2.1
2015-Jan-22 15:33N 54°34' E 011°13'3 3.4
2015-Jan-22 14:33N 54°33' E 011°18'4 3.7
2015-Jan-22 13:33N 54°29' E 011°22'3 2.9
2015-Jan-22 12:33N 54°28' E 011°26'3 3.4
2015-Jan-22 11:33N 54°25' E 011°29'1 0.5
2015-Jan-22 10:33N 54°25' E 011°28'2 1.5
2015-Jan-22 09:32N 54°26' E 011°27'2 1.9
2015-Jan-22 08:33N 54°28' E 011°25'3 3.1
2015-Jan-22 07:33N 54°30' E 011°21'4 3.6
2015-Jan-22 06:33N 54°34' E 011°22'5 0.3
2015-Jan-21 13:22N 54°38' E 011°21'2 0.1
2015-Jan-20 11:23N 54°39' E 011°18'5 5.7
2015-Jan-20 10:29N 54°36' E 011°10'1 0.9
2015-Jan-20 09:28N 54°35' E 011°09'3 3.5
2015-Jan-20 08:33N 54°34' E 011°14'4 3.6
2015-Jan-20 07:33N 54°32' E 011°19'2 1.8
2015-Jan-20 06:33N 54°33' E 011°22'  

Dump ship's entire track history